createdAt,value
2022-08-03T00:03:34.929Z,18.05
2022-08-03T00:08:37.656Z,17.96
2022-08-03T00:13:42.567Z,17.80
2022-08-03T00:18:44.776Z,17.73
2022-08-03T00:23:51.184Z,17.62
2022-08-03T00:28:54.058Z,17.65
2022-08-03T00:33:59.643Z,17.70
2022-08-03T00:39:05.064Z,17.71
2022-08-03T00:44:06.943Z,17.63
2022-08-03T00:49:08.900Z,17.52
2022-08-03T00:54:11.115Z,17.43
2022-08-03T00:59:15.897Z,17.53
2022-08-03T01:04:17.726Z,17.55
2022-08-03T01:09:49.838Z,17.48
2022-08-03T01:15:05.816Z,17.46
2022-08-03T01:20:13.331Z,17.40
2022-08-03T01:26:10.190Z,17.48
2022-08-03T01:31:18.391Z,17.43
2022-08-03T01:36:24.736Z,17.27
2022-08-03T01:41:33.499Z,17.18
2022-08-03T01:46:37.265Z,17.06
2022-08-03T01:51:58.642Z,16.95
2022-08-03T01:57:07.550Z,16.98
2022-08-03T02:02:27.704Z,16.97
2022-08-03T02:07:39.445Z,16.87
2022-08-03T02:12:46.009Z,16.87
2022-08-03T02:17:50.063Z,16.78
2022-08-03T02:22:52.150Z,16.81
2022-08-03T02:28:13.688Z,16.86
2022-08-03T02:33:28.162Z,16.91
2022-08-03T02:38:38.403Z,16.92
2022-08-03T02:44:00.352Z,17.00
2022-08-03T02:49:40.848Z,17.01
2022-08-03T02:54:30.200Z,17.10
2022-08-03T02:59:32.649Z,17.16
2022-08-03T03:04:36.046Z,17.16
2022-08-03T03:09:40.409Z,17.12
2022-08-03T03:14:45.844Z,17.08
2022-08-03T03:19:51.901Z,17.10
2022-08-03T03:24:55.917Z,17.05
2022-08-03T03:29:58.240Z,17.10
2022-08-03T03:35:01.559Z,17.20
2022-08-03T03:40:04.756Z,17.25
2022-08-03T03:45:08.279Z,17.19
2022-08-03T03:50:10.790Z,17.17
2022-08-03T03:55:17.626Z,17.22
2022-08-03T04:00:19.644Z,17.26
2022-08-03T04:05:44.247Z,17.39
2022-08-03T04:11:14.521Z,17.47
2022-08-03T04:16:21.894Z,17.52
2022-08-03T04:21:25.541Z,17.54
2022-08-03T04:26:33.804Z,17.63
2022-08-03T04:31:38.060Z,17.74
2022-08-03T04:36:49.900Z,17.81
2022-08-03T04:42:07.312Z,17.85
2022-08-03T04:47:10.551Z,17.90
2022-08-03T04:52:13.105Z,17.98
2022-08-03T04:57:22.269Z,18.10
2022-08-03T05:02:25.487Z,18.23
2022-08-03T05:07:36.191Z,18.34
2022-08-03T05:12:39.480Z,18.46
2022-08-03T05:17:41.592Z,18.58
2022-08-03T05:22:43.643Z,18.69
2022-08-03T05:27:45.629Z,19.03
2022-08-03T05:32:47.748Z,19.32
2022-08-03T05:37:54.398Z,19.70
2022-08-03T05:42:57.103Z,20.18
2022-08-03T05:48:00.102Z,20.39
2022-08-03T05:53:02.930Z,20.64
2022-08-03T05:58:05.182Z,21.04
2022-08-03T06:03:07.171Z,21.24
2022-08-03T06:08:09.066Z,21.46
2022-08-03T06:13:11.030Z,21.49
2022-08-03T06:18:13.099Z,21.61
2022-08-03T06:23:15.290Z,21.75
2022-08-03T06:28:51.396Z,21.96
2022-08-03T06:34:30.782Z,22.02
2022-08-03T06:39:04.987Z,22.01
2022-08-03T06:44:06.830Z,22.19
2022-08-03T06:49:08.972Z,22.56
2022-08-03T06:54:12.014Z,23.03
2022-08-03T07:00:10.527Z,23.44
2022-08-03T07:04:35.941Z,23.77
2022-08-03T07:09:37.837Z,23.74
2022-08-03T07:14:39.701Z,23.56
2022-08-03T07:19:41.680Z,23.44
2022-08-03T07:24:44.487Z,23.64
2022-08-03T07:29:46.455Z,24.06
2022-08-03T07:34:48.227Z,24.48
2022-08-03T07:39:50.114Z,24.80
2022-08-03T07:44:51.982Z,25.09
2022-08-03T07:49:54.685Z,25.49
2022-08-03T07:54:56.566Z,26.11
2022-08-03T08:00:02.209Z,26.75
2022-08-03T08:05:06.177Z,26.98
2022-08-03T08:10:10.237Z,27.10
2022-08-03T08:15:12.873Z,27.19
2022-08-03T08:20:31.722Z,27.28
2022-08-03T08:25:34.860Z,27.31
2022-08-03T08:30:36.753Z,27.24
2022-08-03T08:35:38.717Z,27.15
2022-08-03T08:40:41.002Z,27.24
2022-08-03T08:45:44.991Z,27.39
2022-08-03T08:50:48.142Z,27.41
2022-08-03T08:55:56.952Z,27.33
2022-08-03T09:01:02.823Z,27.64
2022-08-03T09:06:05.135Z,27.95
2022-08-03T09:11:07.459Z,27.91
2022-08-03T09:16:20.576Z,28.27
2022-08-03T09:21:32.792Z,28.50
2022-08-03T09:26:38.056Z,28.69
2022-08-03T09:31:46.110Z,28.72
2022-08-03T09:36:53.492Z,28.77
2022-08-03T09:42:07.091Z,29.17
2022-08-03T09:47:16.186Z,29.23
2022-08-03T09:52:38.613Z,29.53
2022-08-03T09:57:45.937Z,30.03
2022-08-03T10:02:50.264Z,30.13
2022-08-03T10:07:52.135Z,29.98
2022-08-03T10:12:54.257Z,30.02
2022-08-03T10:17:56.968Z,30.01
2022-08-03T10:23:00.124Z,29.77
2022-08-03T10:28:04.394Z,30.14
2022-08-03T10:33:49.744Z,30.47
2022-08-03T10:38:57.570Z,30.49
2022-08-03T10:44:09.229Z,30.34
2022-08-03T10:49:21.439Z,30.34
2022-08-03T10:54:36.901Z,30.94
2022-08-03T10:59:50.652Z,30.55
2022-08-03T11:05:34.619Z,30.15
2022-08-03T11:10:38.235Z,30.24
2022-08-03T11:15:45.700Z,30.68
2022-08-03T11:20:57.409Z,30.88
2022-08-03T11:26:19.086Z,31.09
2022-08-03T11:31:48.755Z,31.38
2022-08-03T11:37:25.223Z,31.97
2022-08-03T11:42:29.243Z,32.28
2022-08-03T11:47:31.116Z,32.53
2022-08-03T11:52:39.948Z,33.18
2022-08-03T11:59:02.706Z,33.42
2022-08-03T12:03:13.656Z,33.85
2022-08-03T12:08:27.898Z,34.01
2022-08-03T12:14:45.437Z,33.73
2022-08-03T12:19:12.900Z,33.49
2022-08-03T12:24:15.409Z,33.52
2022-08-03T12:29:22.744Z,33.96
2022-08-03T12:34:47.020Z,34.42
2022-08-03T12:40:01.722Z,33.70
2022-08-03T12:45:28.543Z,33.78
2022-08-03T12:50:37.094Z,34.41
2022-08-03T12:56:04.729Z,35.32
2022-08-03T13:01:09.517Z,35.74
2022-08-03T13:06:19.908Z,35.56
2022-08-03T13:11:57.341Z,35.99
2022-08-03T13:16:49.751Z,36.61
2022-08-03T13:22:03.071Z,37.09
2022-08-03T13:27:59.417Z,36.78
2022-08-03T13:32:29.781Z,36.62
2022-08-03T13:37:32.112Z,36.13
2022-08-03T13:42:35.967Z,36.63
2022-08-03T13:47:37.899Z,36.84
2022-08-03T13:52:39.738Z,36.85
2022-08-03T13:58:04.905Z,35.78
2022-08-03T14:03:17.598Z,35.82
2022-08-03T14:08:19.577Z,36.06
2022-08-03T14:13:22.275Z,37.20
2022-08-03T14:18:28.346Z,37.97
2022-08-03T14:23:39.373Z,38.21
2022-08-03T14:28:41.533Z,38.26
2022-08-03T14:33:43.712Z,38.28
2022-08-03T14:38:46.013Z,38.19
2022-08-03T14:44:01.643Z,37.91
2022-08-03T14:50:36.977Z,38.18
2022-08-03T14:54:30.540Z,37.64
2022-08-03T14:59:56.207Z,38.00
2022-08-03T15:04:54.471Z,38.51
2022-08-03T15:09:56.452Z,38.69
2022-08-03T15:14:58.322Z,39.23
2022-08-03T15:20:26.504Z,39.24
2022-08-03T15:26:30.239Z,38.86
2022-08-03T15:30:44.095Z,38.65
2022-08-03T15:35:47.104Z,38.80
2022-08-03T15:40:49.082Z,39.08
2022-08-03T15:46:18.972Z,39.00
2022-08-03T15:51:13.825Z,39.15
2022-08-03T15:56:18.717Z,39.05
2022-08-03T16:01:24.731Z,38.14
2022-08-03T16:06:29.797Z,37.86
2022-08-03T16:11:37.833Z,38.22
2022-08-03T16:16:40.729Z,38.27
2022-08-03T16:21:48.394Z,38.49
2022-08-03T16:26:50.931Z,38.04
2022-08-03T16:31:53.011Z,37.49
2022-08-03T16:36:55.017Z,36.42
2022-08-03T16:42:00.927Z,35.78
2022-08-03T16:47:04.300Z,35.88
2022-08-03T16:52:07.319Z,35.52
2022-08-03T16:57:09.484Z,35.80
2022-08-03T17:02:26.147Z,36.14
2022-08-03T17:07:29.701Z,36.01
2022-08-03T17:12:32.404Z,35.97
2022-08-03T17:17:53.547Z,35.60
2022-08-03T17:23:33.862Z,35.27
2022-08-03T17:28:56.469Z,34.85
2022-08-03T17:34:04.625Z,34.44
2022-08-03T17:39:09.025Z,34.21
2022-08-03T17:44:15.308Z,33.30
2022-08-03T17:49:23.764Z,32.78
2022-08-03T17:55:56.042Z,32.40
2022-08-03T18:01:04.789Z,31.69
2022-08-03T18:06:34.936Z,30.96
2022-08-03T18:11:45.293Z,30.49
2022-08-03T18:16:57.525Z,30.13
2022-08-03T18:22:04.466Z,29.91
2022-08-03T18:27:10.216Z,29.65
2022-08-03T18:32:16.912Z,29.68
2022-08-03T18:37:26.013Z,29.32
2022-08-03T18:42:28.286Z,28.92
2022-08-03T18:47:56.721Z,28.50
2022-08-03T18:54:02.309Z,28.16
2022-08-03T18:59:30.125Z,27.77
2022-08-03T19:04:38.718Z,27.41
2022-08-03T19:10:05.746Z,27.20
2022-08-03T19:15:13.240Z,26.95
2022-08-03T19:20:20.612Z,26.66
2022-08-03T19:25:34.467Z,26.41
2022-08-03T19:30:39.528Z,26.20
2022-08-03T19:35:55.795Z,26.03
2022-08-03T19:41:05.233Z,25.81
2022-08-03T19:46:13.583Z,25.68
2022-08-03T19:51:16.620Z,25.42
2022-08-03T19:56:23.679Z,25.07
2022-08-03T20:01:28.944Z,24.59
2022-08-03T20:06:31.666Z,24.38
2022-08-03T20:11:43.910Z,24.26
2022-08-03T20:16:48.821Z,24.13
2022-08-03T20:21:54.376Z,23.99
2022-08-03T20:27:05.196Z,23.86
2022-08-03T20:32:10.015Z,23.78
2022-08-03T20:37:12.291Z,23.67
2022-08-03T20:42:14.303Z,23.47
2022-08-03T20:47:24.692Z,23.25
2022-08-03T20:52:29.042Z,23.10
2022-08-03T20:57:33.183Z,22.75
2022-08-03T21:02:35.966Z,22.59
2022-08-03T21:07:45.721Z,22.37
2022-08-03T21:13:23.198Z,22.21
2022-08-03T21:18:27.631Z,22.11
2022-08-03T21:23:47.558Z,22.07
2022-08-03T21:28:55.881Z,22.03
2022-08-03T21:34:04.706Z,21.87
2022-08-03T21:39:10.439Z,21.59
2022-08-03T21:44:12.548Z,21.19
2022-08-03T21:50:05.268Z,20.84
2022-08-03T21:54:41.760Z,20.99
2022-08-03T21:59:56.679Z,20.97
2022-08-03T22:04:58.907Z,20.91
2022-08-03T22:10:06.074Z,20.87
2022-08-03T22:15:11.880Z,20.74
2022-08-03T22:20:14.912Z,20.56
2022-08-03T22:25:17.041Z,20.17
2022-08-03T22:30:20.172Z,19.81
2022-08-03T22:35:25.389Z,19.64
2022-08-03T22:40:28.292Z,19.64
2022-08-03T22:46:09.888Z,19.95
2022-08-03T22:50:52.929Z,19.95
2022-08-03T22:55:56.264Z,19.60
2022-08-03T23:01:05.690Z,19.41
2022-08-03T23:06:09.335Z,19.45
2022-08-03T23:11:12.315Z,19.55
2022-08-03T23:16:27.956Z,19.68
2022-08-03T23:21:53.198Z,19.78
2022-08-03T23:26:56.765Z,19.77
2022-08-03T23:32:01.821Z,19.62
2022-08-03T23:37:05.637Z,19.16
2022-08-03T23:42:09.626Z,18.85
2022-08-03T23:47:13.675Z,18.72
2022-08-03T23:52:57.399Z,18.71
2022-08-03T23:58:12.148Z,18.81
